• Join FlightAware (Why Join?)
  • Login
  • US Flag 
02:08PM EDT


 

Airport Tracker/Info


-or-


 

Live Flight TrackerFlight Track Log ✈ N201LP ✈ 19-Aug-2013 ✈ KCRW - KMTN

Flight Track Log - Related Links

Times and Time Zones

All times are in EDT time to prevent confusion due to time zone crossing. See the N201LP flight status page for this flight to view local times or setup timezone preferences in your user account.

Time Position Orientation Groundspeed Altitude Reporting Facility
EDT Latitude Longitude Course Direction KTS MPH feet Rate Location/Type
04:29PM 38.4033 -81.5114 46° Northeast 110 127 2,800  Level Indianapolis Center
04:30PM 38.4169 -81.4725 66° East 115 132 3,600 720 Climbing Indianapolis Center
04:31PM 38.4342 -81.4358 59° Northeast 118 136 4,300 600 Climbing Indianapolis Center
04:32PM 38.4533 -81.3992 56° Northeast 121 139 4,900 480 Climbing Indianapolis Center
04:33PM 38.4856 -81.2969 46° Northeast  Level FlightAware Approximate
04:33PM 38.4725 -81.3617 57° Northeast 125 144 5,400  Level Indianapolis Center
04:34PM 38.5150 -81.2578 46° Northeast  Level FlightAware Approximate
04:34PM 38.4986 -81.3164 54° Northeast 131 151 6,100  Level Indianapolis Center
04:35PM 38.5181 -81.2764 58° Northeast 132 152 6,600 360 Climbing Indianapolis Center
04:36PM 38.5394 -81.2364 56° Northeast 136 157 6,900 120 Climbing Indianapolis Center
04:37PM 38.5619 -81.1917 57° Northeast 149 171 6,900  Level Indianapolis Center
04:38PM 38.5858 -81.1456 56° Northeast 155 178 7,000  Climbing Indianapolis Center
04:39PM 38.6014 -81.0925 69° East 161 185 6,900 -60 Descending Indianapolis Center
04:40PM 38.6181 -81.0278 72° East 160 184 6,900  Level Indianapolis Center
04:41PM 38.6317 -80.9725 72° East 162 186 6,900  Level Indianapolis Center
04:42PM 38.6453 -80.9189 72° East 160 184 6,900  Level Indianapolis Center
04:43PM 38.6622 -80.8656 68° East 162 186 6,900 60 Level Indianapolis Center
04:44PM 38.6783 -80.8139 68° East 158 182 7,100  Climbing Indianapolis Center
04:45PM 38.6942 -80.7628 68° East 155 178 7,000 -60 Descending Indianapolis Center
04:46PM 38.7106 -80.7094 68° East 158 182 7,000  Level Indianapolis Center
04:47PM 38.7306 -80.6433 69° East 164 189 7,000  Level Indianapolis Center
04:48PM 38.7497 -80.5917 65° Northeast 162 186 7,000  Level Indianapolis Center
04:49PM 38.7661 -80.5397 68° East 159 183 7,000  Level Indianapolis Center
04:50PM 38.7836 -80.4856 67° East 162 186 7,000  Level Indianapolis Center
04:51PM 38.7997 -80.4311 69° East 164 189 7,000  Level Indianapolis Center
04:52PM 38.8172 -80.3775 67° East 164 189 7,000  Level Indianapolis Center
04:53PM 38.8328 -80.3236 70° East 163 188 7,000 -60 Level Indianapolis Center
04:54PM 38.8531 -80.2597 68° East 162 186 6,900 -60 Descending Indianapolis Center
04:55PM 38.8694 -80.2061 69° East 162 186 6,900  Level Indianapolis Center
04:57PM 38.8839 -80.1481 72° East  Level FlightAware Approximate
05:04PM 38.9850 -79.7881 70° East  Level FlightAware Approximate
05:05PM 38.9997 -79.7368 70° East  Level FlightAware Approximate
05:06PM 39.0143 -79.6855 70° East  Level FlightAware Approximate
05:06PM 39.0464 -79.6703 70° East 170 196 7,000  Level Washington Center
05:07PM 39.0290 -79.6341 70° East  Level FlightAware Approximate
05:07PM 39.0628 -79.6150 69° East 170 196 7,000  Level Washington Center
05:08PM 39.0436 -79.5827 70° East  Level FlightAware Approximate
05:08PM 39.0772 -79.5625 70° East 165 190 7,000  Level Washington Center
05:09PM 39.0582 -79.5314 70° East  Level FlightAware Approximate
05:09PM 39.0894 -79.5094 73° East 160 184 7,000  Level Washington Center
05:10PM 39.0727 -79.4799 70° East  Level FlightAware Approximate
05:10PM 39.1017 -79.4514 75° East 160 184 7,000  Level Washington Center
05:11PM 39.0872 -79.4285 70° East  Level FlightAware Approximate
05:11PM 39.1136 -79.4039 72° East 160 184 7,100  Level Washington Center
05:12PM 39.1278 -79.3483 72° East 160 184 7,000 -60 Descending Washington Center
05:13PM 39.1422 -79.2903 72° East 160 184 7,000  Level Washington Center
05:14PM 39.1483 -79.2264 83° East 160 184 7,000 -60 Level Washington Center
05:15PM 39.1625 -79.1736 71° East 160 184 6,900  Descending Washington Center
05:16PM 39.1786 -79.1181 69° East 160 184 7,100  Climbing Washington Center
05:17PM 39.1967 -79.0653 66° East 160 184 7,000 -120 Descending Washington Center
05:18PM 39.2131 -79.0097 69° East 165 190 6,900  Descending Washington Center
05:19PM 39.2292 -78.9544 69° East 165 190 7,000 60 Climbing Washington Center
05:20PM 39.2369 -78.8983 80° East 165 190 7,100 -60 Climbing Washington Center
05:21PM 39.2467 -78.8453 77° East 160 184 6,900 -180 Descending Washington Center
05:22PM 39.2525 -78.7892 82° East 160 184 6,800  Descending Washington Center
05:23PM 39.2600 -78.7333 80° East 160 184 7,000 60 Climbing Washington Center
05:24PM 39.2658 -78.6772 82° East 160 184 7,000  Level Washington Center
05:25PM 39.2736 -78.6186 80° East 160 184 7,000 -60 Level Washington Center
05:26PM 39.2833 -78.5628 77° East 160 184 6,900 -60 Descending Washington Center
05:27PM 39.2908 -78.5039 81° East 160 184 6,900  Level Washington Center
05:28PM 39.2986 -78.4453 80° East 160 184 6,900  Level Washington Center
05:29PM 39.3042 -78.3892 83° East 160 184 6,900  Level Washington Center
05:30PM 39.3097 -78.3275 83° East 160 184 6,900  Level Washington Center
05:31PM 39.3172 -78.2717 80° East 160 184 6,900  Level Washington Center
05:32PM 39.3267 -78.2131 78° East 160 184 6,900  Level Washington Center
05:33PM 39.3364 -78.1597 77° East 160 184 6,900 -60 Level Washington Center
05:34PM 39.3500 -78.1036 73° East 160 184 6,800  Descending Washington Center
05:35PM 39.3594 -78.0450 78° East 160 184 7,000 60 Climbing Washington Center
05:36PM 39.3689 -77.9889 78° East 160 184 7,000  Level Washington Center
05:37PM 39.3764 -77.9275 81° East 160 184 7,000  Level Washington Center
05:39PM 39.4000 -77.8000 76° East 168 193 7,000 -120 Level Potomac TRACON
05:40PM 39.4000 -77.7500 90° East 168 193 6,800 -360 Descending Potomac TRACON
05:41PM 39.4000 -77.6833 90° East 172 198 6,400 -480 Descending Potomac TRACON
05:42PM 39.4000 -77.6333 90° East 176 203 5,900 -480 Descending Potomac TRACON
05:43PM 39.4167 -77.5667 72° East 176 203 5,500 -480 Descending Potomac TRACON
05:44PM 39.4167 -77.5000 90° East 172 198 5,000 -300 Descending Potomac TRACON
05:45PM 39.4333 -77.4333 72° East 161 185 4,900 -60 Descending Potomac TRACON
05:46PM 39.4333 -77.3667 90° East 164 189 4,900  Level Potomac TRACON
05:47PM 39.4500 -77.3167 67° East 168 193 5,000  Climbing Potomac TRACON
05:48PM 39.4500 -77.2500 90° East 166 191 4,900  Descending Potomac TRACON
05:49PM 39.4667 -77.2000 67° East 166 191 5,000  Climbing Potomac TRACON
05:50PM 39.4667 -77.1333 90° East 167 192 4,900 -300 Descending Potomac TRACON
05:51PM 39.4833 -77.0833 67° East 172 198 4,500 -480 Descending Potomac TRACON
05:52PM 39.4833 -77.0167 90° East 172 198 4,000 -300 Descending Potomac TRACON
05:53PM 39.5000 -76.9667 67° East 167 192 3,900 -120 Descending Potomac TRACON
05:54PM 39.5000 -76.9000 90° East 156 180 3,800 -120 Descending Potomac TRACON
05:55PM 39.5000 -76.8500 90° East 161 185 3,700 -300 Descending Potomac TRACON
05:56PM 39.4833 -76.7833 108° East 167 192 3,200 -360 Descending Potomac TRACON
05:57PM 39.4667 -76.7333 113° Southeast 164 189 3,000 -240 Descending Potomac TRACON
05:58PM 39.4500 -76.6833 113° Southeast 147 169 2,800 -180 Descending Potomac TRACON
05:59PM 39.4333 -76.6333 113° Southeast 142 163 2,700 -240 Descending Potomac TRACON
06:00PM 39.4167 -76.5833 113° Southeast 155 178 2,400 -420 Descending Potomac TRACON
06:01PM 39.4000 -76.5500 123° Southeast 152 175 1,900 -420 Descending Potomac TRACON
06:02PM 39.3833 -76.5000 113° Southeast 135 155 1,600 -360 Descending Potomac TRACON
06:03PM 39.3667 -76.4667 123° Southeast 112 129 1,200 -540 Descending Potomac TRACON
06:04PM 39.3500 -76.4500 142° Southeast 86 99 600 -600 Descending Potomac TRACON
06:06PM 39.3257 -76.4138 113° Southeast  Level Estimated
06:13PM 39.3257 -76.4138 113° Southeast  Level Estimated
06:14PM 39.3257 -76.4138 113° Southeast  Level Estimated
06:15PM 39.3257 -76.4138 113° Southeast  Level Estimated
06:16PM 39.3257 -76.4138 113° Southeast  Level Estimated